sensor_id;sensor_type;location;lat;lon;timestamp;P1;durP1;ratioP1;P2;durP2;ratioP2
53108;SDS011;39007;53.090;6.074;2022-11-15T00:00:46;27.88;;;22.40;;
53108;SDS011;39007;53.090;6.074;2022-11-15T00:03:16;26.08;;;21.33;;
53108;SDS011;39007;53.090;6.074;2022-11-15T00:05:42;26.58;;;20.75;;
53108;SDS011;39007;53.090;6.074;2022-11-15T00:08:09;26.98;;;22.23;;
53108;SDS011;39007;53.090;6.074;2022-11-15T00:10:35;27.58;;;22.05;;
53108;SDS011;39007;53.090;6.074;2022-11-15T00:13:08;29.20;;;22.42;;
53108;SDS011;39007;53.090;6.074;2022-11-15T00:15:37;28.00;;;22.35;;
53108;SDS011;39007;53.090;6.074;2022-11-15T00:18:04;30.60;;;23.60;;
53108;SDS011;39007;53.090;6.074;2022-11-15T00:20:31;32.35;;;24.75;;
53108;SDS011;39007;53.090;6.074;2022-11-15T00:22:57;33.80;;;24.50;;
53108;SDS011;39007;53.090;6.074;2022-11-15T00:25:23;32.47;;;24.52;;
53108;SDS011;39007;53.090;6.074;2022-11-15T00:27:49;30.55;;;24.40;;
53108;SDS011;39007;53.090;6.074;2022-11-15T00:30:17;30.77;;;24.70;;
53108;SDS011;39007;53.090;6.074;2022-11-15T00:32:43;33.00;;;24.83;;
53108;SDS011;39007;53.090;6.074;2022-11-15T00:35:09;28.80;;;23.23;;
53108;SDS011;39007;53.090;6.074;2022-11-15T00:37:35;30.25;;;24.08;;
53108;SDS011;39007;53.090;6.074;2022-11-15T00:40:01;31.63;;;23.10;;
53108;SDS011;39007;53.090;6.074;2022-11-15T00:42:27;30.55;;;23.73;;
53108;SDS011;39007;53.090;6.074;2022-11-15T00:44:53;27.95;;;23.55;;
53108;SDS011;39007;53.090;6.074;2022-11-15T00:47:19;29.83;;;23.17;;
53108;SDS011;39007;53.090;6.074;2022-11-15T00:49:45;29.60;;;23.40;;
53108;SDS011;39007;53.090;6.074;2022-11-15T00:52:11;29.73;;;23.50;;
53108;SDS011;39007;53.090;6.074;2022-11-15T00:54:38;27.90;;;22.60;;
53108;SDS011;39007;53.090;6.074;2022-11-15T00:57:04;30.27;;;24.20;;
53108;SDS011;39007;53.090;6.074;2022-11-15T00:59:33;31.88;;;23.70;;
53108;SDS011;39007;53.090;6.074;2022-11-15T01:01:59;30.15;;;24.77;;
53108;SDS011;39007;53.090;6.074;2022-11-15T01:04:26;31.80;;;24.70;;
53108;SDS011;39007;53.090;6.074;2022-11-15T01:06:52;30.38;;;24.45;;
53108;SDS011;39007;53.090;6.074;2022-11-15T01:09:18;30.58;;;23.17;;
53108;SDS011;39007;53.090;6.074;2022-11-15T01:11:44;31.73;;;24.85;;
53108;SDS011;39007;53.090;6.074;2022-11-15T01:14:10;30.13;;;24.63;;
53108;SDS011;39007;53.090;6.074;2022-11-15T01:16:36;29.88;;;24.20;;
53108;SDS011;39007;53.090;6.074;2022-11-15T01:19:02;33.22;;;25.65;;
53108;SDS011;39007;53.090;6.074;2022-11-15T01:21:28;31.17;;;25.25;;
53108;SDS011;39007;53.090;6.074;2022-11-15T01:23:55;31.42;;;25.40;;
53108;SDS011;39007;53.090;6.074;2022-11-15T01:26:22;30.95;;;25.00;;
53108;SDS011;39007;53.090;6.074;2022-11-15T01:28:48;31.42;;;26.33;;
53108;SDS011;39007;53.090;6.074;2022-11-15T01:31:16;35.63;;;26.98;;
53108;SDS011;39007;53.090;6.074;2022-11-15T01:33:42;34.13;;;27.10;;
53108;SDS011;39007;53.090;6.074;2022-11-15T01:36:19;31.65;;;26.60;;
53108;SDS011;39007;53.090;6.074;2022-11-15T01:38:46;34.35;;;26.73;;
53108;SDS011;39007;53.090;6.074;2022-11-15T01:41:16;37.35;;;27.35;;
53108;SDS011;39007;53.090;6.074;2022-11-15T01:43:43;34.95;;;27.20;;
53108;SDS011;39007;53.090;6.074;2022-11-15T01:46:18;34.65;;;26.00;;
53108;SDS011;39007;53.090;6.074;2022-11-15T01:48:49;33.40;;;26.15;;
53108;SDS011;39007;53.090;6.074;2022-11-15T01:51:16;37.28;;;27.33;;
53108;SDS011;39007;53.090;6.074;2022-11-15T01:53:44;37.08;;;27.77;;
53108;SDS011;39007;53.090;6.074;2022-11-15T01:56:11;34.22;;;26.17;;
53108;SDS011;39007;53.090;6.074;2022-11-15T01:58:39;36.55;;;25.25;;
53108;SDS011;39007;53.090;6.074;2022-11-15T02:01:06;36.67;;;26.45;;
53108;SDS011;39007;53.090;6.074;2022-11-15T02:03:43;33.00;;;24.42;;
53108;SDS011;39007;53.090;6.074;2022-11-15T02:06:10;33.03;;;23.75;;
53108;SDS011;39007;53.090;6.074;2022-11-15T02:08:36;35.00;;;24.23;;
53108;SDS011;39007;53.090;6.074;2022-11-15T02:11:04;34.53;;;25.23;;
53108;SDS011;39007;53.090;6.074;2022-11-15T02:13:30;33.75;;;25.10;;
53108;SDS011;39007;53.090;6.074;2022-11-15T02:16:03;34.95;;;25.08;;
53108;SDS011;39007;53.090;6.074;2022-11-15T02:18:35;34.60;;;25.80;;
53108;SDS011;39007;53.090;6.074;2022-11-15T02:21:09;34.42;;;24.70;;
53108;SDS011;39007;53.090;6.074;2022-11-15T02:29:10;36.95;;;26.10;;
53108;SDS011;39007;53.090;6.074;2022-11-15T02:31:45;38.67;;;26.20;;
53108;SDS011;39007;53.090;6.074;2022-11-15T02:36:44;33.47;;;24.85;;
53108;SDS011;39007;53.090;6.074;2022-11-15T02:44:21;37.75;;;26.02;;
53108;SDS011;39007;53.090;6.074;2022-11-15T02:46:50;42.58;;;27.65;;
53108;SDS011;39007;53.090;6.074;2022-11-15T02:54:29;46.67;;;26.20;;
53108;SDS011;39007;53.090;6.074;2022-11-15T02:56:58;44.67;;;26.92;;
53108;SDS011;39007;53.090;6.074;2022-11-15T03:07:48;47.28;;;27.90;;
53108;SDS011;39007;53.090;6.074;2022-11-15T03:11:00;44.30;;;27.60;;
53108;SDS011;39007;53.090;6.074;2022-11-15T03:13:10;45.88;;;26.08;;
53108;SDS011;39007;53.090;6.074;2022-11-15T03:18:46;52.75;;;28.08;;
53108;SDS011;39007;53.090;6.074;2022-11-15T03:21:13;49.58;;;30.52;;
53108;SDS011;39007;53.090;6.074;2022-11-15T03:23:40;48.42;;;30.85;;
53108;SDS011;39007;53.090;6.074;2022-11-15T03:26:09;51.70;;;31.08;;
53108;SDS011;39007;53.090;6.074;2022-11-15T03:31:04;51.78;;;31.50;;
53108;SDS011;39007;53.090;6.074;2022-11-15T03:33:51;55.10;;;31.85;;
53108;SDS011;39007;53.090;6.074;2022-11-15T03:36:19;52.22;;;31.23;;
53108;SDS011;39007;53.090;6.074;2022-11-15T03:38:46;52.83;;;31.17;;
53108;SDS011;39007;53.090;6.074;2022-11-15T03:41:33;57.17;;;31.55;;
53108;SDS011;39007;53.090;6.074;2022-11-15T03:44:04;54.65;;;28.75;;
53108;SDS011;39007;53.090;6.074;2022-11-15T03:46:40;55.97;;;29.27;;
53108;SDS011;39007;53.090;6.074;2022-11-15T03:49:16;56.17;;;32.15;;
53108;SDS011;39007;53.090;6.074;2022-11-15T03:51:43;56.30;;;31.92;;
53108;SDS011;39007;53.090;6.074;2022-11-15T03:54:10;61.05;;;34.25;;
53108;SDS011;39007;53.090;6.074;2022-11-15T03:56:37;63.17;;;32.50;;
53108;SDS011;39007;53.090;6.074;2022-11-15T03:59:03;61.88;;;34.80;;
53108;SDS011;39007;53.090;6.074;2022-11-15T04:01:30;63.80;;;34.08;;
53108;SDS011;39007;53.090;6.074;2022-11-15T04:03:56;63.38;;;33.70;;
53108;SDS011;39007;53.090;6.074;2022-11-15T04:06:22;65.97;;;34.75;;
53108;SDS011;39007;53.090;6.074;2022-11-15T04:08:48;64.03;;;33.55;;
53108;SDS011;39007;53.090;6.074;2022-11-15T04:11:14;65.25;;;35.08;;
53108;SDS011;39007;53.090;6.074;2022-11-15T04:13:40;69.57;;;34.75;;
53108;SDS011;39007;53.090;6.074;2022-11-15T04:16:06;65.10;;;34.33;;
53108;SDS011;39007;53.090;6.074;2022-11-15T04:18:33;69.85;;;34.53;;
53108;SDS011;39007;53.090;6.074;2022-11-15T04:20:59;68.38;;;33.97;;
53108;SDS011;39007;53.090;6.074;2022-11-15T04:23:44;66.90;;;34.35;;
53108;SDS011;39007;53.090;6.074;2022-11-15T04:26:28;66.13;;;34.10;;
53108;SDS011;39007;53.090;6.074;2022-11-15T04:28:54;62.50;;;33.22;;
53108;SDS011;39007;53.090;6.074;2022-11-15T04:31:39;65.25;;;33.72;;
53108;SDS011;39007;53.090;6.074;2022-11-15T04:34:06;68.65;;;33.90;;
53108;SDS011;39007;53.090;6.074;2022-11-15T04:36:32;63.60;;;33.03;;
53108;SDS011;39007;53.090;6.074;2022-11-15T04:39:17;71.10;;;35.03;;
53108;SDS011;39007;53.090;6.074;2022-11-15T04:41:43;65.45;;;33.97;;
53108;SDS011;39007;53.090;6.074;2022-11-15T04:44:09;69.65;;;35.33;;
53108;SDS011;39007;53.090;6.074;2022-11-15T04:46:35;65.85;;;34.95;;
53108;SDS011;39007;53.090;6.074;2022-11-15T04:49:01;68.90;;;36.30;;
53108;SDS011;39007;53.090;6.074;2022-11-15T04:51:27;65.75;;;33.85;;
53108;SDS011;39007;53.090;6.074;2022-11-15T04:53:53;77.85;;;35.50;;
53108;SDS011;39007;53.090;6.074;2022-11-15T04:56:19;71.43;;;35.50;;
53108;SDS011;39007;53.090;6.074;2022-11-15T04:58:48;70.38;;;35.63;;
53108;SDS011;39007;53.090;6.074;2022-11-15T05:01:14;72.07;;;36.83;;
53108;SDS011;39007;53.090;6.074;2022-11-15T05:03:41;77.30;;;37.63;;
53108;SDS011;39007;53.090;6.074;2022-11-15T05:06:26;75.03;;;38.40;;
53108;SDS011;39007;53.090;6.074;2022-11-15T05:08:52;82.22;;;40.17;;
53108;SDS011;39007;53.090;6.074;2022-11-15T05:11:18;76.00;;;39.83;;
53108;SDS011;39007;53.090;6.074;2022-11-15T05:13:45;81.70;;;38.97;;
53108;SDS011;39007;53.090;6.074;2022-11-15T05:16:12;88.20;;;40.92;;
53108;SDS011;39007;53.090;6.074;2022-11-15T05:18:38;81.85;;;39.70;;
53108;SDS011;39007;53.090;6.074;2022-11-15T05:21:08;79.97;;;40.75;;
53108;SDS011;39007;53.090;6.074;2022-11-15T05:23:34;82.00;;;40.95;;
53108;SDS011;39007;53.090;6.074;2022-11-15T05:26:01;89.50;;;42.47;;
53108;SDS011;39007;53.090;6.074;2022-11-15T05:28:28;88.45;;;43.50;;
53108;SDS011;39007;53.090;6.074;2022-11-15T05:31:00;82.10;;;42.50;;
53108;SDS011;39007;53.090;6.074;2022-11-15T05:33:26;92.80;;;44.00;;
53108;SDS011;39007;53.090;6.074;2022-11-15T05:35:54;86.45;;;43.08;;
53108;SDS011;39007;53.090;6.074;2022-11-15T05:38:23;84.85;;;43.28;;
53108;SDS011;39007;53.090;6.074;2022-11-15T05:40:49;86.15;;;43.65;;
53108;SDS011;39007;53.090;6.074;2022-11-15T05:43:15;93.53;;;44.80;;
53108;SDS011;39007;53.090;6.074;2022-11-15T05:45:41;106.68;;;47.40;;
53108;SDS011;39007;53.090;6.074;2022-11-15T05:48:07;91.00;;;44.25;;
53108;SDS011;39007;53.090;6.074;2022-11-15T05:50:35;105.72;;;46.63;;
53108;SDS011;39007;53.090;6.074;2022-11-15T05:53:02;99.65;;;46.75;;
53108;SDS011;39007;53.090;6.074;2022-11-15T05:55:28;117.72;;;46.88;;
53108;SDS011;39007;53.090;6.074;2022-11-15T05:57:55;102.43;;;46.97;;
53108;SDS011;39007;53.090;6.074;2022-11-15T06:00:21;113.80;;;49.33;;
53108;SDS011;39007;53.090;6.074;2022-11-15T06:02:47;115.93;;;48.05;;
53108;SDS011;39007;53.090;6.074;2022-11-15T06:05:13;124.25;;;48.35;;
53108;SDS011;39007;53.090;6.074;2022-11-15T06:07:39;127.15;;;48.85;;
53108;SDS011;39007;53.090;6.074;2022-11-15T06:10:05;123.88;;;50.42;;
53108;SDS011;39007;53.090;6.074;2022-11-15T06:12:32;113.38;;;47.72;;
53108;SDS011;39007;53.090;6.074;2022-11-15T06:14:58;101.90;;;47.65;;
53108;SDS011;39007;53.090;6.074;2022-11-15T06:17:24;103.38;;;46.63;;
53108;SDS011;39007;53.090;6.074;2022-11-15T06:19:50;114.25;;;48.08;;
53108;SDS011;39007;53.090;6.074;2022-11-15T06:22:16;110.78;;;47.33;;
53108;SDS011;39007;53.090;6.074;2022-11-15T06:24:42;88.43;;;44.50;;
53108;SDS011;39007;53.090;6.074;2022-11-15T06:27:10;98.32;;;45.13;;
53108;SDS011;39007;53.090;6.074;2022-11-15T06:29:36;98.80;;;45.35;;
53108;SDS011;39007;53.090;6.074;2022-11-15T06:32:02;100.35;;;45.65;;
53108;SDS011;39007;53.090;6.074;2022-11-15T06:34:28;100.95;;;48.10;;
53108;SDS011;39007;53.090;6.074;2022-11-15T06:36:54;105.55;;;47.33;;
53108;SDS011;39007;53.090;6.074;2022-11-15T06:39:20;101.35;;;47.00;;
53108;SDS011;39007;53.090;6.074;2022-11-15T06:41:46;99.20;;;47.00;;
53108;SDS011;39007;53.090;6.074;2022-11-15T06:44:12;95.47;;;46.50;;
53108;SDS011;39007;53.090;6.074;2022-11-15T06:46:39;89.80;;;46.38;;
53108;SDS011;39007;53.090;6.074;2022-11-15T06:49:05;90.43;;;45.88;;
53108;SDS011;39007;53.090;6.074;2022-11-15T06:51:31;84.10;;;46.33;;
53108;SDS011;39007;53.090;6.074;2022-11-15T06:53:57;93.03;;;45.22;;
53108;SDS011;39007;53.090;6.074;2022-11-15T06:56:23;93.88;;;45.40;;
53108;SDS011;39007;53.090;6.074;2022-11-15T06:58:49;97.35;;;47.45;;
53108;SDS011;39007;53.090;6.074;2022-11-15T07:01:15;96.22;;;46.78;;
53108;SDS011;39007;53.090;6.074;2022-11-15T07:03:41;90.03;;;46.03;;
53108;SDS011;39007;53.090;6.074;2022-11-15T07:06:08;88.90;;;46.65;;
53108;SDS011;39007;53.090;6.074;2022-11-15T07:08:34;88.40;;;44.95;;
53108;SDS011;39007;53.090;6.074;2022-11-15T07:11:02;88.60;;;46.08;;
53108;SDS011;39007;53.090;6.074;2022-11-15T07:13:29;84.80;;;45.83;;
53108;SDS011;39007;53.090;6.074;2022-11-15T07:15:58;83.68;;;44.90;;
53108;SDS011;39007;53.090;6.074;2022-11-15T07:18:27;85.10;;;44.47;;
53108;SDS011;39007;53.090;6.074;2022-11-15T07:20:53;84.75;;;45.53;;
53108;SDS011;39007;53.090;6.074;2022-11-15T07:23:19;80.72;;;44.05;;
53108;SDS011;39007;53.090;6.074;2022-11-15T07:25:45;82.72;;;44.08;;
53108;SDS011;39007;53.090;6.074;2022-11-15T07:28:11;78.15;;;44.30;;
53108;SDS011;39007;53.090;6.074;2022-11-15T07:30:38;77.60;;;43.28;;
53108;SDS011;39007;53.090;6.074;2022-11-15T07:33:05;76.22;;;42.67;;
53108;SDS011;39007;53.090;6.074;2022-11-15T07:35:31;71.43;;;41.45;;
53108;SDS011;39007;53.090;6.074;2022-11-15T07:37:57;69.10;;;41.35;;
53108;SDS011;39007;53.090;6.074;2022-11-15T07:40:24;72.75;;;41.03;;
53108;SDS011;39007;53.090;6.074;2022-11-15T07:42:51;70.95;;;40.75;;
53108;SDS011;39007;53.090;6.074;2022-11-15T07:45:21;62.25;;;39.03;;
53108;SDS011;39007;53.090;6.074;2022-11-15T07:47:48;70.32;;;39.72;;
53108;SDS011;39007;53.090;6.074;2022-11-15T07:50:14;68.80;;;39.67;;
53108;SDS011;39007;53.090;6.074;2022-11-15T07:52:40;66.47;;;39.28;;
53108;SDS011;39007;53.090;6.074;2022-11-15T07:55:07;57.95;;;38.00;;
53108;SDS011;39007;53.090;6.074;2022-11-15T07:57:33;64.43;;;38.58;;
53108;SDS011;39007;53.090;6.074;2022-11-15T07:59:59;59.85;;;37.50;;
53108;SDS011;39007;53.090;6.074;2022-11-15T08:02:25;57.55;;;38.05;;
53108;SDS011;39007;53.090;6.074;2022-11-15T08:04:51;59.80;;;38.33;;
53108;SDS011;39007;53.090;6.074;2022-11-15T08:07:17;57.30;;;37.25;;
53108;SDS011;39007;53.090;6.074;2022-11-15T08:09:43;56.25;;;35.97;;
53108;SDS011;39007;53.090;6.074;2022-11-15T08:12:10;58.30;;;37.25;;
53108;SDS011;39007;53.090;6.074;2022-11-15T08:14:36;54.50;;;36.90;;
53108;SDS011;39007;53.090;6.074;2022-11-15T08:17:03;55.20;;;36.70;;
53108;SDS011;39007;53.090;6.074;2022-11-15T08:19:29;56.85;;;36.30;;
53108;SDS011;39007;53.090;6.074;2022-11-15T08:21:55;57.38;;;36.85;;
53108;SDS011;39007;53.090;6.074;2022-11-15T08:24:21;51.85;;;35.72;;
53108;SDS011;39007;53.090;6.074;2022-11-15T08:26:47;49.80;;;35.97;;
53108;SDS011;39007;53.090;6.074;2022-11-15T08:29:14;52.03;;;36.28;;
53108;SDS011;39007;53.090;6.074;2022-11-15T08:31:40;54.40;;;35.30;;
53108;SDS011;39007;53.090;6.074;2022-11-15T08:34:06;42.45;;;30.98;;
53108;SDS011;39007;53.090;6.074;2022-11-15T08:36:32;46.55;;;33.45;;
53108;SDS011;39007;53.090;6.074;2022-11-15T08:38:58;46.35;;;32.72;;
53108;SDS011;39007;53.090;6.074;2022-11-15T08:41:26;51.90;;;33.65;;
53108;SDS011;39007;53.090;6.074;2022-11-15T08:43:52;46.95;;;32.60;;
53108;SDS011;39007;53.090;6.074;2022-11-15T08:46:18;50.97;;;32.25;;
53108;SDS011;39007;53.090;6.074;2022-11-15T08:48:44;45.95;;;33.28;;
53108;SDS011;39007;53.090;6.074;2022-11-15T08:51:11;42.97;;;31.67;;
53108;SDS011;39007;53.090;6.074;2022-11-15T08:53:37;42.53;;;31.23;;
53108;SDS011;39007;53.090;6.074;2022-11-15T08:56:06;43.35;;;31.45;;
53108;SDS011;39007;53.090;6.074;2022-11-15T08:58:32;43.80;;;31.35;;
53108;SDS011;39007;53.090;6.074;2022-11-15T09:00:58;46.17;;;33.17;;
53108;SDS011;39007;53.090;6.074;2022-11-15T09:03:24;43.15;;;32.22;;
53108;SDS011;39007;53.090;6.074;2022-11-15T09:05:54;43.88;;;31.52;;
53108;SDS011;39007;53.090;6.074;2022-11-15T09:08:20;42.10;;;30.65;;
53108;SDS011;39007;53.090;6.074;2022-11-15T09:10:46;42.35;;;30.95;;
53108;SDS011;39007;53.090;6.074;2022-11-15T09:13:12;37.20;;;30.02;;
53108;SDS011;39007;53.090;6.074;2022-11-15T09:15:39;44.58;;;30.73;;
53108;SDS011;39007;53.090;6.074;2022-11-15T09:18:05;41.60;;;30.48;;
53108;SDS011;39007;53.090;6.074;2022-11-15T09:20:31;44.28;;;30.20;;
53108;SDS011;39007;53.090;6.074;2022-11-15T09:23:01;40.35;;;29.80;;
53108;SDS011;39007;53.090;6.074;2022-11-15T09:25:27;42.70;;;29.67;;
53108;SDS011;39007;53.090;6.074;2022-11-15T09:27:54;41.63;;;29.88;;
53108;SDS011;39007;53.090;6.074;2022-11-15T09:30:20;39.13;;;28.67;;
53108;SDS011;39007;53.090;6.074;2022-11-15T09:32:47;35.60;;;28.20;;
53108;SDS011;39007;53.090;6.074;2022-11-15T09:35:13;38.47;;;29.88;;
53108;SDS011;39007;53.090;6.074;2022-11-15T09:37:39;39.50;;;27.83;;
53108;SDS011;39007;53.090;6.074;2022-11-15T09:40:06;37.90;;;27.67;;
53108;SDS011;39007;53.090;6.074;2022-11-15T09:47:41;39.33;;;27.42;;
53108;SDS011;39007;53.090;6.074;2022-11-15T09:50:12;35.20;;;26.38;;
53108;SDS011;39007;53.090;6.074;2022-11-15T09:52:39;37.88;;;27.17;;
53108;SDS011;39007;53.090;6.074;2022-11-15T09:55:08;39.15;;;26.63;;
53108;SDS011;39007;53.090;6.074;2022-11-15T09:57:39;35.72;;;25.20;;
53108;SDS011;39007;53.090;6.074;2022-11-15T10:00:09;34.13;;;27.15;;
53108;SDS011;39007;53.090;6.074;2022-11-15T10:05:11;30.08;;;24.27;;
53108;SDS011;39007;53.090;6.074;2022-11-15T10:10:25;36.25;;;24.23;;
53108;SDS011;39007;53.090;6.074;2022-11-15T10:12:51;33.35;;;23.35;;
53108;SDS011;39007;53.090;6.074;2022-11-15T10:15:18;30.85;;;23.35;;
53108;SDS011;39007;53.090;6.074;2022-11-15T10:17:53;34.55;;;22.55;;
53108;SDS011;39007;53.090;6.074;2022-11-15T10:20:22;34.42;;;23.27;;
53108;SDS011;39007;53.090;6.074;2022-11-15T10:22:53;31.60;;;22.52;;
53108;SDS011;39007;53.090;6.074;2022-11-15T10:25:24;28.55;;;22.02;;
53108;SDS011;39007;53.090;6.074;2022-11-15T10:27:53;32.58;;;23.08;;
53108;SDS011;39007;53.090;6.074;2022-11-15T10:30:19;31.30;;;22.52;;
53108;SDS011;39007;53.090;6.074;2022-11-15T10:32:46;33.05;;;22.90;;
53108;SDS011;39007;53.090;6.074;2022-11-15T10:35:22;29.92;;;22.08;;
53108;SDS011;39007;53.090;6.074;2022-11-15T10:37:48;30.05;;;21.67;;
53108;SDS011;39007;53.090;6.074;2022-11-15T10:40:24;29.90;;;21.17;;
53108;SDS011;39007;53.090;6.074;2022-11-15T10:45:34;28.83;;;20.40;;
53108;SDS011;39007;53.090;6.074;2022-11-15T10:48:22;27.20;;;19.90;;
53108;SDS011;39007;53.090;6.074;2022-11-15T10:50:48;28.60;;;20.38;;
53108;SDS011;39007;53.090;6.074;2022-11-15T10:55:46;24.83;;;19.77;;
53108;SDS011;39007;53.090;6.074;2022-11-15T11:01:08;26.42;;;19.27;;
53108;SDS011;39007;53.090;6.074;2022-11-15T11:03:35;25.08;;;18.77;;
53108;SDS011;39007;53.090;6.074;2022-11-15T11:06:12;24.52;;;16.63;;
53108;SDS011;39007;53.090;6.074;2022-11-15T11:08:38;20.45;;;15.77;;
53108;SDS011;39007;53.090;6.074;2022-11-15T11:11:05;25.30;;;16.30;;
53108;SDS011;39007;53.090;6.074;2022-11-15T11:21:19;22.55;;;14.18;;
53108;SDS011;39007;53.090;6.074;2022-11-15T11:23:52;20.95;;;13.75;;
53108;SDS011;39007;53.090;6.074;2022-11-15T11:26:29;22.73;;;13.43;;
53108;SDS011;39007;53.090;6.074;2022-11-15T11:29:16;23.38;;;13.23;;
53108;SDS011;39007;53.090;6.074;2022-11-15T11:31:53;20.13;;;12.25;;
53108;SDS011;39007;53.090;6.074;2022-11-15T11:37:11;21.33;;;10.73;;
53108;SDS011;39007;53.090;6.074;2022-11-15T11:42:24;17.55;;;10.30;;
53108;SDS011;39007;53.090;6.074;2022-11-15T11:47:23;14.85;;;9.45;;
53108;SDS011;39007;53.090;6.074;2022-11-15T11:49:54;12.57;;;8.18;;
53108;SDS011;39007;53.090;6.074;2022-11-15T12:00:58;11.93;;;7.65;;
53108;SDS011;39007;53.090;6.074;2022-11-15T12:05:56;12.13;;;7.60;;
53108;SDS011;39007;53.090;6.074;2022-11-15T12:08:40;14.75;;;8.10;;
53108;SDS011;39007;53.090;6.074;2022-11-15T12:11:14;11.68;;;7.22;;
53108;SDS011;39007;53.090;6.074;2022-11-15T12:13:42;12.98;;;7.65;;
53108;SDS011;39007;53.090;6.074;2022-11-15T12:16:19;12.93;;;7.68;;
53108;SDS011;39007;53.090;6.074;2022-11-15T12:18:49;11.40;;;7.80;;
53108;SDS011;39007;53.090;6.074;2022-11-15T12:23:52;10.50;;;6.53;;
53108;SDS011;39007;53.090;6.074;2022-11-15T12:26:21;14.70;;;7.40;;
53108;SDS011;39007;53.090;6.074;2022-11-15T12:28:52;14.70;;;11.65;;
53108;SDS011;39007;53.090;6.074;2022-11-15T12:31:24;12.05;;;6.82;;
53108;SDS011;39007;53.090;6.074;2022-11-15T12:33:56;14.95;;;6.90;;
53108;SDS011;39007;53.090;6.074;2022-11-15T12:41:18;11.00;;;5.97;;
53108;SDS011;39007;53.090;6.074;2022-11-15T12:43:45;12.02;;;4.90;;
53108;SDS011;39007;53.090;6.074;2022-11-15T12:46:23;10.70;;;4.22;;
53108;SDS011;39007;53.090;6.074;2022-11-15T13:02:20;9.25;;;3.60;;
53108;SDS011;39007;53.090;6.074;2022-11-15T13:04:47;6.13;;;3.22;;
53108;SDS011;39007;53.090;6.074;2022-11-15T13:17:49;7.00;;;3.60;;
53108;SDS011;39007;53.090;6.074;2022-11-15T13:25:18;7.45;;;3.70;;
53108;SDS011;39007;53.090;6.074;2022-11-15T13:27:47;5.80;;;3.25;;
53108;SDS011;39007;53.090;6.074;2022-11-15T13:30:24;7.75;;;3.65;;
53108;SDS011;39007;53.090;6.074;2022-11-15T13:32:50;8.38;;;3.22;;
53108;SDS011;39007;53.090;6.074;2022-11-15T13:35:24;8.65;;;3.75;;
53108;SDS011;39007;53.090;6.074;2022-11-15T13:37:51;7.35;;;3.42;;
53108;SDS011;39007;53.090;6.074;2022-11-15T13:42:44;5.45;;;3.10;;
53108;SDS011;39007;53.090;6.074;2022-11-15T13:45:12;6.40;;;2.90;;
53108;SDS011;39007;53.090;6.074;2022-11-15T13:47:39;7.63;;;3.42;;
53108;SDS011;39007;53.090;6.074;2022-11-15T13:50:05;8.38;;;3.20;;
53108;SDS011;39007;53.090;6.074;2022-11-15T13:52:33;5.57;;;3.08;;
53108;SDS011;39007;53.090;6.074;2022-11-15T13:57:36;8.07;;;3.00;;
53108;SDS011;39007;53.090;6.074;2022-11-15T14:00:05;6.82;;;2.83;;
53108;SDS011;39007;53.090;6.074;2022-11-15T14:02:32;6.68;;;2.70;;
53108;SDS011;39007;53.090;6.074;2022-11-15T14:05:01;7.00;;;3.15;;
53108;SDS011;39007;53.090;6.074;2022-11-15T14:07:28;6.13;;;2.90;;
53108;SDS011;39007;53.090;6.074;2022-11-15T14:09:55;6.05;;;2.50;;
53108;SDS011;39007;53.090;6.074;2022-11-15T14:12:23;4.65;;;2.17;;
53108;SDS011;39007;53.090;6.074;2022-11-15T14:14:50;5.95;;;2.80;;
53108;SDS011;39007;53.090;6.074;2022-11-15T14:17:20;9.85;;;2.85;;
53108;SDS011;39007;53.090;6.074;2022-11-15T14:19:48;8.77;;;2.72;;
53108;SDS011;39007;53.090;6.074;2022-11-15T14:24:43;5.88;;;2.25;;
53108;SDS011;39007;53.090;6.074;2022-11-15T14:27:17;6.07;;;2.53;;
53108;SDS011;39007;53.090;6.074;2022-11-15T14:29:43;8.40;;;2.40;;
53108;SDS011;39007;53.090;6.074;2022-11-15T14:32:14;4.95;;;2.25;;
53108;SDS011;39007;53.090;6.074;2022-11-15T14:34:41;7.25;;;2.58;;
53108;SDS011;39007;53.090;6.074;2022-11-15T14:37:19;8.48;;;3.00;;
53108;SDS011;39007;53.090;6.074;2022-11-15T14:39:46;9.15;;;3.15;;
53108;SDS011;39007;53.090;6.074;2022-11-15T14:42:12;6.75;;;2.53;;
53108;SDS011;39007;53.090;6.074;2022-11-15T14:44:38;7.90;;;2.70;;
53108;SDS011;39007;53.090;6.074;2022-11-15T14:47:04;5.47;;;2.47;;
53108;SDS011;39007;53.090;6.074;2022-11-15T14:49:30;6.95;;;2.45;;
53108;SDS011;39007;53.090;6.074;2022-11-15T14:51:56;5.80;;;2.67;;
53108;SDS011;39007;53.090;6.074;2022-11-15T14:54:22;5.63;;;2.10;;
53108;SDS011;39007;53.090;6.074;2022-11-15T14:56:48;4.50;;;2.00;;
53108;SDS011;39007;53.090;6.074;2022-11-15T14:59:14;6.22;;;2.08;;
53108;SDS011;39007;53.090;6.074;2022-11-15T15:01:41;6.32;;;2.60;;
53108;SDS011;39007;53.090;6.074;2022-11-15T15:04:08;5.97;;;2.20;;
53108;SDS011;39007;53.090;6.074;2022-11-15T15:06:35;5.47;;;2.25;;
53108;SDS011;39007;53.090;6.074;2022-11-15T15:09:01;7.18;;;2.50;;
53108;SDS011;39007;53.090;6.074;2022-11-15T15:11:28;8.90;;;2.92;;
53108;SDS011;39007;53.090;6.074;2022-11-15T15:13:54;7.30;;;2.47;;
53108;SDS011;39007;53.090;6.074;2022-11-15T15:16:22;4.97;;;2.30;;
53108;SDS011;39007;53.090;6.074;2022-11-15T15:18:49;7.22;;;2.35;;
53108;SDS011;39007;53.090;6.074;2022-11-15T15:21:20;7.20;;;2.53;;
53108;SDS011;39007;53.090;6.074;2022-11-15T15:23:46;4.50;;;2.35;;
53108;SDS011;39007;53.090;6.074;2022-11-15T15:26:12;6.97;;;1.92;;
53108;SDS011;39007;53.090;6.074;2022-11-15T15:28:38;5.82;;;2.00;;
53108;SDS011;39007;53.090;6.074;2022-11-15T15:31:04;6.43;;;2.20;;
53108;SDS011;39007;53.090;6.074;2022-11-15T15:33:31;4.68;;;2.08;;
53108;SDS011;39007;53.090;6.074;2022-11-15T15:35:57;7.35;;;2.13;;
53108;SDS011;39007;53.090;6.074;2022-11-15T15:38:24;5.72;;;2.00;;
53108;SDS011;39007;53.090;6.074;2022-11-15T15:40:50;6.15;;;1.80;;
53108;SDS011;39007;53.090;6.074;2022-11-15T15:43:16;5.88;;;1.83;;
53108;SDS011;39007;53.090;6.074;2022-11-15T15:45:42;5.45;;;1.92;;
53108;SDS011;39007;53.090;6.074;2022-11-15T15:48:13;6.20;;;2.15;;
53108;SDS011;39007;53.090;6.074;2022-11-15T15:50:40;5.95;;;2.10;;
53108;SDS011;39007;53.090;6.074;2022-11-15T15:53:08;5.75;;;2.08;;
53108;SDS011;39007;53.090;6.074;2022-11-15T15:55:35;5.57;;;1.95;;
53108;SDS011;39007;53.090;6.074;2022-11-15T15:58:01;5.35;;;2.35;;
53108;SDS011;39007;53.090;6.074;2022-11-15T16:00:28;10.40;;;2.80;;
53108;SDS011;39007;53.090;6.074;2022-11-15T16:02:54;8.70;;;2.60;;
53108;SDS011;39007;53.090;6.074;2022-11-15T16:05:21;7.03;;;2.90;;
53108;SDS011;39007;53.090;6.074;2022-11-15T16:07:47;6.78;;;3.00;;
53108;SDS011;39007;53.090;6.074;2022-11-15T16:10:18;8.27;;;3.15;;
53108;SDS011;39007;53.090;6.074;2022-11-15T16:12:44;7.68;;;3.42;;
53108;SDS011;39007;53.090;6.074;2022-11-15T16:15:10;5.93;;;3.58;;
53108;SDS011;39007;53.090;6.074;2022-11-15T16:17:41;9.75;;;3.88;;
53108;SDS011;39007;53.090;6.074;2022-11-15T16:20:12;19.40;;;14.23;;
53108;SDS011;39007;53.090;6.074;2022-11-15T16:22:45;6.65;;;4.50;;
53108;SDS011;39007;53.090;6.074;2022-11-15T16:25:11;9.50;;;5.78;;
53108;SDS011;39007;53.090;6.074;2022-11-15T16:27:37;8.05;;;6.50;;
53108;SDS011;39007;53.090;6.074;2022-11-15T16:30:12;8.40;;;5.00;;
53108;SDS011;39007;53.090;6.074;2022-11-15T16:32:39;7.50;;;5.10;;